METAR AND TAF INFORMATION
METAR FOR PAVD
ADDS - METARS form results

(1821 UTC 24 February 2020)
Data provider http://aviationweather.gov/metar/data/
 
METAR text: PAVD 241756Z VRB05KT 20SM CLR M06/M18 A3047 RMK PK WND 07030/1731 WSHFT 1723
Conditions at: PAVD (VALDEZ , AK, US) observed 1756 UTC 24 February 2020
Temperature: -6.0°C (21°F)
Dewpoint: -18.0°C (-0°F) [RH = 38%]
Pressure (altimeter): 30.47 inches Hg (1031.9 mb)
Winds: variable direction winds at 6 MPH (5 knots; 2.6 m/s)
Visibility: 20 miles (32 km)
Ceiling: at least 12,000 feet AGL
Clouds: sky clear below 12,000 feet AGL
Weather: no significant weather observed at this time

METAR text: PAVD 241741Z 06012G29KT 030V090 10SM CLR M06/M18 A3047 RMK PK WND 07030/1731 WSHFT 1723
Conditions at: PAVD (VALDEZ , AK, US) observed 1741 UTC 24 February 2020
Temperature: -6.0°C (21°F)
Dewpoint: -18.0°C (-0°F) [RH = 38%]
Pressure (altimeter): 30.47 inches Hg (1031.9 mb)
Winds: from the ENE (60 degrees) at 14 MPH (12 knots; 6.2 m/s)
gusting to 33 MPH (29 knots; 14.9 m/s)
Visibility: 10 or more miles (16+ km)
Ceiling: at least 12,000 feet AGL
Clouds: sky clear below 12,000 feet AGL
Weather: no significant weather observed at this time

Forecast for: PAVD (VALDEZ , AK, US)
Text: PAVD 241721Z 2418/2518 07012G25KT P6SM SKC AMD LTD TO CLD VIS AND WIND
Forecast period: 1800 UTC 24 February 2020 to 1800 UTC 25 February 2020
Forecast type: FROM: standard forecast or significant change
Winds: from the ENE (70 degrees) at 14 MPH (12 knots; 6.2 m/s)
gusting to 29 MPH (25 knots; 12.9 m/s)
Visibility: 6 or more miles 10+ km)
Clouds: clear skies
Weather: no significant weather forecast for this period

 AIRPORT MAP

 RUNWAY INFORMATION
Runway 06 Runway length 6508 ft Runway width 150 ft
Runway elevation 39 ft Runway displaced threshold 0 ft Runway heading 81
Runway 24 Runway length 6508 ft Runway width 150 ft
Runway elevation 118 ft Runway displaced threshold 0 ft Runway heading 261

 AIRPORT FREQUENCIES
Type AWOS Name AWOS 3 Frequency 118.8 MHZ
Type CNTR Name ANCHORAGE Frequency 119.3 MHZ
Type CTAF Name CTAF Frequency 122.9 MHZ
Type FSS Name JUNEAU RDO Frequency 122.2 MHZ

 AIRPORT NEAR NAVIGATION AIDS
Type NDB Name Mineral Creek Frequency 524 KHZ



We are a FlightSim virtual group and are in no way affiliated with RavnAir Group.

Powered by Virtual Airlines Manager [v2.6.2]